Time;durP1;ratioP1;P1;durP2;ratioP2;P2;SDS_P1;SDS_P2;PMS_P1;PMS_P2;Temp;Humidity;BMP_temperature;BMP_pressure;BME280_temperature;BME280_humidity;BME280_pressure;Samples;Min_cycle;Max_cycle;Signal;HPM_P1;HPM_P2
2023/06/17 07:35:01;;;;;;;36.20;7.80;;;23.80;72.30;;;;;;1980682;27;20403;-65
2023/06/17 07:35:58;;;;;;;18.55;6.80;;;23.80;72.10;;;;;;1983584;28;20071;-65
2023/06/17 07:36:56;;;;;;;25.00;7.28;;;23.80;71.60;;;;;;1990516;28;20024;-65
2023/06/17 07:37:53;;;;;;;27.10;9.48;;;23.90;71.30;;;;;;1979663;28;20052;-65
2023/06/17 07:38:51;;;;;;;49.40;13.30;;;23.80;71.10;;;;;;1979933;28;20402;-65
2023/06/17 07:39:49;;;;;;;36.95;12.23;;;23.80;71.10;;;;;;1975461;28;20036;-65
2023/06/17 07:40:46;;;;;;;36.50;11.65;;;23.90;71.10;;;;;;1979728;28;20028;-65
2023/06/17 07:41:44;;;;;;;45.03;12.23;;;23.80;71.00;;;;;;1974740;28;20029;-65
2023/06/17 07:42:42;;;;;;;29.95;10.88;;;23.90;71.00;;;;;;1976495;28;20025;-65
2023/06/17 07:43:40;;;;;;;30.45;10.50;;;23.90;71.00;;;;;;1974181;28;20029;-65
2023/06/17 07:44:37;;;;;;;32.30;10.13;;;23.80;71.00;;;;;;1974909;28;20033;-65
2023/06/17 07:45:35;;;;;;;31.27;8.30;;;23.90;71.10;;;;;;1994268;22;20076;-64
2023/06/17 07:46:32;;;;;;;23.23;8.13;;;23.80;71.00;;;;;;1970190;28;20364;-64
2023/06/17 07:47:30;;;;;;;23.23;8.35;;;23.80;71.10;;;;;;1965830;28;20043;-64
2023/06/17 07:48:28;;;;;;;15.38;6.57;;;23.80;71.00;;;;;;1968373;28;20038;-61
2023/06/17 07:49:25;;;;;;;17.83;6.10;;;23.80;71.10;;;;;;1967908;28;20052;-61
2023/06/17 07:50:23;;;;;;;17.98;6.10;;;23.40;70.90;;;;;;1969385;28;20360;-61
2023/06/17 07:51:20;;;;;;;15.35;6.07;;;23.80;71.10;;;;;;1971306;28;20029;-61
2023/06/17 07:52:18;;;;;;;24.48;6.82;;;23.80;71.10;;;;;;1969830;28;20440;-61
2023/06/17 07:53:15;;;;;;;17.15;6.20;;;23.80;71.10;;;;;;1967103;28;20090;-61
2023/06/17 07:54:13;;;;;;;24.10;6.68;;;23.80;71.10;;;;;;1970373;28;20062;-61
2023/06/17 07:55:11;;;;;;;14.93;5.95;;;23.80;71.10;;;;;;1968617;28;20026;-61
2023/06/17 07:56:08;;;;;;;23.02;6.03;;;23.80;71.10;;;;;;1971701;28;20040;-61
2023/06/17 07:57:06;;;;;;;20.70;6.38;;;23.80;71.10;;;;;;1965656;28;20038;-61
2023/06/17 07:58:03;;;;;;;15.52;5.85;;;23.80;71.10;;;;;;1968850;28;21304;-61
2023/06/17 07:59:01;;;;;;;26.40;6.82;;;23.80;71.10;;;;;;1967783;28;20371;-61
2023/06/17 07:59:59;;;;;;;14.98;6.47;;;23.80;71.10;;;;;;1968495;28;20029;-61
2023/06/17 08:00:56;;;;;;;13.90;5.63;;;23.80;71.00;;;;;;1969820;28;20029;-61
2023/06/17 08:01:54;;;;;;;19.77;6.60;;;23.80;71.00;;;;;;1969233;28;20032;-61
2023/06/17 08:02:51;;;;;;;10.75;5.57;;;23.90;71.10;;;;;;1968550;28;20022;-61
2023/06/17 08:03:50;;;;;;;13.80;5.47;;;23.80;71.00;;;;;;1970812;28;20505;-61
2023/06/17 08:04:48;;;;;;;13.45;6.20;;;23.80;71.00;;;;;;1969948;28;20026;-61
2023/06/17 08:05:45;;;;;;;16.13;5.57;;;23.80;71.00;;;;;;1970374;28;20021;-61
2023/06/17 08:06:44;;;;;;;15.07;4.82;;;23.80;71.00;;;;;;1967248;28;20365;-61
2023/06/17 08:07:41;;;;;;;14.88;5.60;;;23.80;71.00;;;;;;1971584;28;20480;-61
2023/06/17 08:08:39;;;;;;;12.77;5.55;;;23.80;71.00;;;;;;1967615;28;20025;-61
2023/06/17 08:09:37;;;;;;;19.25;5.78;;;23.90;71.00;;;;;;1971246;28;20120;-61
2023/06/17 08:10:34;;;;;;;10.68;5.90;;;23.80;71.00;;;;;;1969129;28;20111;-62
2023/06/17 08:11:32;;;;;;;19.25;5.28;;;23.80;71.00;;;;;;1970943;28;20049;-61
2023/06/17 08:12:29;;;;;;;22.73;5.38;;;23.90;71.00;;;;;;1968300;28;20387;-61
2023/06/17 08:13:27;;;;;;;10.82;4.82;;;23.80;70.90;;;;;;1966353;28;20102;-61
2023/06/17 08:14:25;;;;;;;12.77;4.78;;;23.70;70.90;;;;;;1966832;28;20624;-61
2023/06/17 08:15:22;;;;;;;10.10;5.15;;;23.80;71.00;;;;;;1967415;28;20349;-61
2023/06/17 08:16:20;;;;;;;11.48;4.75;;;23.80;71.00;;;;;;1970517;28;20033;-62
2023/06/17 08:17:17;;;;;;;11.52;5.13;;;23.90;71.00;;;;;;1967396;28;20024;-61
2023/06/17 08:18:15;;;;;;;12.10;5.43;;;23.80;70.90;;;;;;1968509;28;20071;-61
2023/06/17 08:19:12;;;;;;;16.58;4.97;;;24.40;71.30;;;;;;1969151;28;20638;-61
2023/06/17 08:20:10;;;;;;;16.08;5.15;;;23.80;70.90;;;;;;1965052;28;20081;-61
2023/06/17 08:21:08;;;;;;;11.40;5.35;;;23.80;70.90;;;;;;1968530;28;20014;-61
2023/06/17 08:22:05;;;;;;;10.75;4.93;;;23.80;70.90;;;;;;1968745;28;20129;-61
2023/06/17 08:23:03;;;;;;;12.00;4.45;;;23.80;70.90;;;;;;1969249;28;20034;-61
2023/06/17 08:24:16;;;;;;;6.55;4.10;;;23.90;70.90;;;;;;1964331;28;20030;-61
2023/06/17 08:25:13;;;;;;;11.05;5.38;;;23.90;71.00;;;;;;1965409;28;20526;-61
2023/06/17 08:26:11;;;;;;;7.38;4.20;;;23.90;70.90;;;;;;1967883;28;20049;-61
2023/06/17 08:27:09;;;;;;;10.95;4.47;;;23.90;70.90;;;;;;1969686;28;20029;-61
2023/06/17 08:28:07;;;;;;;16.83;5.10;;;23.80;70.90;;;;;;1968180;28;20037;-61
2023/06/17 08:29:05;;;;;;;12.50;4.85;;;23.90;70.90;;;;;;1968548;28;20499;-61
2023/06/17 08:30:04;;;;;;;11.13;4.55;;;23.90;70.90;;;;;;1968275;28;20124;-61
2023/06/17 08:31:02;;;;;;;6.18;4.15;;;23.90;70.90;;;;;;1969344;28;20088;-61
2023/06/17 08:31:59;;;;;;;13.60;4.93;;;23.80;70.90;;;;;;1968808;28;20421;-61
2023/06/17 08:32:57;;;;;;;14.52;4.88;;;23.90;70.90;;;;;;1968709;28;20021;-61
2023/06/17 08:33:55;;;;;;;13.63;4.80;;;23.90;70.90;;;;;;1968816;28;20025;-61
2023/06/17 08:34:52;;;;;;;11.52;4.63;;;23.80;70.90;;;;;;1966212;28;20026;-62
2023/06/17 08:35:50;;;;;;;9.73;4.82;;;23.90;70.90;;;;;;1964379;28;20322;-62
2023/06/17 08:36:54;;;;;;;12.02;4.95;;;23.90;70.90;;;;;;1970026;28;20065;-61
2023/06/17 08:37:51;;;;;;;8.57;4.47;;;23.90;70.80;;;;;;1967008;28;20395;-61
2023/06/17 08:38:50;;;;;;;18.63;5.47;;;23.90;70.90;;;;;;1965670;28;20053;-61
2023/06/17 08:39:47;;;;;;;10.32;4.10;;;23.90;70.90;;;;;;1970162;28;20025;-61
2023/06/17 08:40:45;;;;;;;8.32;4.95;;;23.90;70.90;;;;;;1969564;28;20076;-61
2023/06/17 08:41:43;;;;;;;9.90;4.32;;;23.80;70.80;;;;;;1969199;28;20022;-61
2023/06/17 08:42:41;;;;;;;11.88;4.10;;;23.90;70.90;;;;;;1966376;28;20026;-61
2023/06/17 08:43:39;;;;;;;9.93;4.57;;;23.90;70.90;;;;;;1968210;28;20213;-61
2023/06/17 08:44:38;;;;;;;11.38;4.50;;;23.90;70.80;;;;;;1961416;28;20233;-61
2023/06/17 08:45:36;;;;;;;9.07;4.65;;;23.90;70.80;;;;;;1954259;28;20033;-61
2023/06/17 08:46:34;;;;;;;10.75;4.38;;;23.90;70.80;;;;;;1961632;28;20029;-61
2023/06/17 08:47:31;;;;;;;12.40;3.60;;;23.90;70.90;;;;;;1961855;28;20378;-61
2023/06/17 08:48:29;;;;;;;12.25;4.53;;;23.90;70.80;;;;;;1963694;28;20108;-61
2023/06/17 08:49:27;;;;;;;8.70;4.55;;;23.90;70.80;;;;;;1963204;28;20038;-61
2023/06/17 08:50:25;;;;;;;6.85;3.83;;;23.90;70.80;;;;;;1953884;28;20054;-62
2023/06/17 08:51:22;;;;;;;9.13;3.83;;;23.90;70.80;;;;;;1960539;28;20037;-62
2023/06/17 08:52:20;;;;;;;9.60;4.22;;;23.90;70.90;;;;;;1959345;28;20034;-61
2023/06/17 08:53:17;;;;;;;11.90;4.43;;;23.90;70.80;;;;;;1954885;28;20034;-61
2023/06/17 08:54:15;;;;;;;11.95;4.60;;;23.90;71.50;;;;;;1955069;28;20067;-61
2023/06/17 08:55:13;;;;;;;10.52;4.63;;;23.90;70.80;;;;;;1962827;28;20014;-61
2023/06/17 08:56:12;;;;;;;8.43;4.32;;;23.90;70.80;;;;;;1961752;28;20034;-61
2023/06/17 08:57:13;;;;;;;7.63;4.30;;;23.90;70.90;;;;;;1960533;28;20030;-61
2023/06/17 08:58:11;;;;;;;11.20;4.97;;;23.90;70.80;;;;;;1960866;28;20096;-61
2023/06/17 08:59:08;;;;;;;12.32;4.22;;;23.90;70.90;;;;;;1961211;28;21012;-61
2023/06/17 09:00:10;;;;;;;9.27;3.90;;;23.90;70.90;;;;;;1964397;28;20448;-61
2023/06/17 09:01:08;;;;;;;11.93;4.15;;;23.90;70.90;;;;;;1961421;28;20061;-61
2023/06/17 09:02:05;;;;;;;6.07;3.90;;;23.90;70.90;;;;;;1961889;28;20396;-61
2023/06/17 09:03:04;;;;;;;8.30;3.75;;;23.90;70.90;;;;;;1960699;28;20070;-61
2023/06/17 09:04:01;;;;;;;6.15;3.78;;;24.00;70.90;;;;;;1956436;28;20612;-61
2023/06/17 09:04:59;;;;;;;8.63;4.30;;;23.90;70.80;;;;;;1961182;28;20046;-61
2023/06/17 09:05:57;;;;;;;6.18;3.97;;;23.80;70.80;;;;;;1963707;28;20033;-61
2023/06/17 09:06:54;;;;;;;10.20;4.25;;;23.90;70.90;;;;;;1958356;28;20122;-61
2023/06/17 09:07:52;;;;;;;7.85;3.90;;;23.90;70.90;;;;;;1966348;28;20041;-62
2023/06/17 09:08:50;;;;;;;6.75;4.03;;;23.90;70.90;;;;;;1961240;28;20132;-62
2023/06/17 09:09:51;;;;;;;7.38;3.85;;;23.90;70.90;;;;;;1963613;28;20034;-61
2023/06/17 09:10:48;;;;;;;6.78;3.90;;;23.90;70.90;;;;;;1955639;28;20026;-62
2023/06/17 09:11:50;;;;;;;7.22;4.20;;;23.90;70.90;;;;;;1954847;28;20039;-61
2023/06/17 09:12:47;;;;;;;11.80;4.13;;;23.90;70.90;;;;;;1965889;28;20138;-62
2023/06/17 09:13:50;;;;;;;5.43;3.97;;;23.90;70.90;;;;;;1964631;28;20116;-61
2023/06/17 09:14:47;;;;;;;5.68;4.15;;;23.90;70.80;;;;;;1960984;28;20144;-61
2023/06/17 09:15:45;;;;;;;8.02;3.53;;;23.90;70.90;;;;;;1963876;28;20095;-61
2023/06/17 09:16:43;;;;;;;9.57;4.18;;;23.90;70.90;;;;;;1962346;28;20080;-61
2023/06/17 09:17:42;;;;;;;8.05;3.72;;;23.90;70.90;;;;;;1962352;28;20115;-62
2023/06/17 09:18:40;;;;;;;8.40;3.65;;;23.90;70.90;;;;;;1963004;28;20485;-61
2023/06/17 09:19:40;;;;;;;10.43;4.13;;;23.90;70.90;;;;;;1963219;28;20494;-61
2023/06/17 09:20:38;;;;;;;5.80;3.75;;;23.90;70.90;;;;;;1961704;28;20021;-61
2023/06/17 09:21:36;;;;;;;8.88;4.00;;;23.90;71.00;;;;;;1965743;28;20029;-61
2023/06/17 09:22:35;;;;;;;4.50;3.33;;;23.90;70.90;;;;;;1964163;28;20026;-62
2023/06/17 09:23:32;;;;;;;8.02;4.22;;;23.90;70.90;;;;;;1963746;28;20496;-61
2023/06/17 09:24:30;;;;;;;8.65;3.90;;;23.90;70.80;;;;;;1964829;28;20033;-61
2023/06/17 09:25:27;;;;;;;5.75;3.35;;;23.90;70.80;;;;;;1965018;28;20097;-61
2023/06/17 09:26:28;;;;;;;7.57;3.15;;;23.90;70.90;;;;;;1965989;28;20036;-61
2023/06/17 09:27:26;;;;;;;10.52;4.40;;;23.90;70.90;;;;;;1963009;28;20040;-61
2023/06/17 09:28:23;;;;;;;6.32;3.55;;;23.90;70.90;;;;;;1961711;28;20026;-61
2023/06/17 09:29:21;;;;;;;5.78;3.28;;;23.90;70.90;;;;;;1962524;28;20301;-61
2023/06/17 09:30:20;;;;;;;6.97;3.80;;;23.90;70.90;;;;;;1962248;28;20072;-62
2023/06/17 09:31:18;;;;;;;6.10;3.45;;;23.90;70.90;;;;;;1962110;28;20026;-61
2023/06/17 09:32:16;;;;;;;6.15;3.47;;;23.90;70.90;;;;;;1961691;28;20444;-61
2023/06/17 09:33:18;;;;;;;6.90;3.88;;;23.90;70.90;;;;;;1960225;28;20135;-61
2023/06/17 09:34:15;;;;;;;6.28;3.42;;;23.90;70.90;;;;;;1962624;28;20076;-61
2023/06/17 09:35:16;;;;;;;6.72;3.75;;;23.90;70.90;;;;;;1965206;28;20029;-61
2023/06/17 09:36:14;;;;;;;6.75;3.22;;;23.90;70.90;;;;;;1969208;28;20280;-61
2023/06/17 09:37:12;;;;;;;5.90;3.42;;;23.90;70.90;;;;;;1962592;28;20019;-61
2023/06/17 09:38:09;;;;;;;8.30;3.30;;;23.90;70.90;;;;;;1961481;28;20040;-61
2023/06/17 09:39:08;;;;;;;7.25;3.53;;;23.90;70.80;;;;;;1963482;28;20029;-61
2023/06/17 09:40:07;;;;;;;5.13;3.08;;;23.90;70.80;;;;;;1964375;28;20033;-61
2023/06/17 09:41:04;;;;;;;10.07;3.97;;;24.10;71.00;;;;;;1963277;28;20026;-62
2023/06/17 09:42:09;;;;;;;6.90;3.85;;;23.90;70.80;;;;;;1964020;28;20022;-62
2023/06/17 09:43:06;;;;;;;31.63;9.98;;;23.90;70.90;;;;;;1960870;28;20113;-61
2023/06/17 09:44:05;;;;;;;27.80;10.73;;;23.90;70.90;;;;;;1963833;28;20046;-61
2023/06/17 09:45:06;;;;;;;36.15;14.35;;;23.90;70.90;;;;;;1963440;28;20025;-61
2023/06/17 09:46:04;;;;;;;38.40;14.38;;;23.90;70.90;;;;;;1963012;28;20030;-61
2023/06/17 09:47:06;;;;;;;66.28;21.38;;;23.90;70.90;;;;;;1963955;28;20026;-61
2023/06/17 09:48:04;;;;;;;65.18;21.55;;;23.90;70.90;;;;;;1962217;28;20148;-62
2023/06/17 09:49:09;;;;;;;59.95;20.90;;;23.90;70.90;;;;;;1963045;28;20042;-61
2023/06/17 09:50:11;;;;;;;58.03;17.90;;;23.90;70.90;;;;;;1963079;28;21143;-62
2023/06/17 09:51:09;;;;;;;54.50;16.33;;;23.90;70.90;;;;;;1963731;28;20033;-61
2023/06/17 09:52:08;;;;;;;44.97;13.77;;;24.00;71.00;;;;;;1963831;28;20029;-61
2023/06/17 09:53:05;;;;;;;36.25;12.88;;;23.90;70.90;;;;;;1963155;28;20058;-62
2023/06/17 09:54:04;;;;;;;34.80;10.93;;;23.90;70.90;;;;;;1955651;28;20049;-61
2023/06/17 09:55:05;;;;;;;27.58;10.73;;;23.90;70.90;;;;;;1958415;28;20468;-62
2023/06/17 09:56:03;;;;;;;;;;;23.90;71.00;;;;;;1963309;28;20125;-61
2023/06/17 09:57:01;;;;;;;19.25;8.32;;;23.90;71.00;;;;;;1964334;28;19909;-61
2023/06/17 09:57:59;;;;;;;18.63;7.85;;;23.90;70.90;;;;;;1964144;28;20022;-61
2023/06/17 09:58:57;;;;;;;19.27;8.15;;;23.90;70.90;;;;;;1957537;28;20096;-61
2023/06/17 09:59:55;;;;;;;18.77;7.53;;;23.90;70.90;;;;;;1966530;28;20092;-61
2023/06/17 10:00:52;;;;;;;20.10;8.10;;;23.90;70.90;;;;;;1964519;28;20054;-61
2023/06/17 10:01:50;;;;;;;24.27;7.40;;;24.00;71.00;;;;;;1961735;28;20026;-61
2023/06/17 10:02:48;;;;;;;21.92;8.15;;;23.90;70.90;;;;;;1967117;28;20425;-61
2023/06/17 10:03:46;;;;;;;16.73;7.75;;;23.90;70.90;;;;;;1965005;28;20038;-61
2023/06/17 10:04:44;;;;;;;27.42;7.57;;;24.00;71.00;;;;;;1968148;28;20049;-61
2023/06/17 10:05:41;;;;;;;34.45;7.93;;;23.90;70.90;;;;;;1967797;28;20118;-61
2023/06/17 10:06:39;;;;;;;16.20;6.63;;;23.90;70.90;;;;;;1972370;28;20114;-61
2023/06/17 10:07:37;;;;;;;19.10;7.75;;;24.00;71.00;;;;;;1962656;28;20322;-61
2023/06/17 10:08:36;;;;;;;24.08;7.75;;;23.90;70.90;;;;;;1963088;28;20041;-61
2023/06/17 10:09:33;;;;;;;16.80;6.82;;;24.00;71.00;;;;;;1961734;28;20026;-61
2023/06/17 10:10:31;;;;;;;18.35;6.88;;;23.90;70.90;;;;;;1962084;28;20898;-62
2023/06/17 10:11:29;;;;;;;19.10;6.97;;;24.00;71.00;;;;;;1957594;28;20050;-61
2023/06/17 10:12:26;;;;;;;21.17;6.55;;;24.00;71.00;;;;;;1964419;28;20407;-61
2023/06/17 10:13:24;;;;;;;15.52;6.05;;;23.90;71.00;;;;;;1963855;28;20116;-61
2023/06/17 10:14:25;;;;;;;14.18;6.50;;;23.90;70.90;;;;;;1963456;28;20462;-62
2023/06/17 10:15:23;;;;;;;;;;;23.90;70.90;;;;;;1956113;28;20193;-62
2023/06/17 10:16:21;;;;;;;13.60;6.78;;;24.00;71.00;;;;;;1963465;28;19917;-61
2023/06/17 10:17:19;;;;;;;17.63;6.47;;;24.00;71.00;;;;;;1961056;28;20049;-61
2023/06/17 10:18:16;;;;;;;14.85;5.97;;;23.90;70.90;;;;;;1961119;28;20044;-61
2023/06/17 10:19:16;;;;;;;16.98;6.05;;;24.00;71.00;;;;;;1953418;28;20030;-62
2023/06/17 10:20:14;;;;;;;16.23;6.30;;;23.90;70.90;;;;;;1950836;28;20369;-64
2023/06/17 10:21:11;;;;;;;23.33;6.75;;;24.00;71.10;;;;;;1954953;28;20054;-60
2023/06/17 10:22:11;;;;;;;12.68;6.60;;;24.00;71.10;;;;;;1957765;28;20033;-61
2023/06/17 10:23:08;;;;;;;18.13;6.57;;;24.20;70.80;;;;;;1960760;28;20449;-62
2023/06/17 10:24:06;;;;;;;16.02;5.60;;;24.20;70.40;;;;;;1954311;28;20049;-61
2023/06/17 10:25:05;;;;;;;16.77;6.40;;;24.30;70.30;;;;;;1962909;28;20649;-61
2023/06/17 10:26:06;;;;;;;16.13;6.03;;;24.30;70.30;;;;;;1964424;28;20025;-61
2023/06/17 10:27:05;;;;;;;14.93;6.07;;;24.30;70.10;;;;;;1964901;28;20021;-61
2023/06/17 10:28:04;;;;;;;11.70;5.72;;;24.40;70.10;;;;;;1965234;28;20030;-61
2023/06/17 10:29:06;;;;;;;19.85;6.10;;;24.30;70.10;;;;;;1963608;28;20037;-60
2023/06/17 10:30:22;;;;;;;16.05;6.20;;;24.40;70.10;;;;;;1965621;28;20052;-61
2023/06/17 10:31:37;;;;;;;14.10;5.47;;;24.40;70.10;;;;;;1963745;28;20121;-61
2023/06/17 10:32:36;;;;;;;12.38;5.07;;;24.40;70.00;;;;;;1962008;28;20030;-61
2023/06/17 10:33:33;;;;;;;14.85;5.90;;;24.40;70.00;;;;;;1963318;28;20038;-61
2023/06/17 10:34:31;;;;;;;16.55;6.18;;;24.40;69.90;;;;;;1963890;28;20045;-61
2023/06/17 10:35:38;;;;;;;29.05;11.93;;;24.50;70.70;;;;;;1964106;28;20030;-61
2023/06/17 10:36:35;;;;;;;35.65;10.27;;;24.50;71.50;;;;;;1960998;28;20029;-61
2023/06/17 10:37:44;;;;;;;25.77;11.45;;;24.40;70.50;;;;;;1961702;28;20025;-61
2023/06/17 10:38:41;;;;;;;17.63;8.15;;;24.40;70.20;;;;;;1955168;28;20073;-61
2023/06/17 10:39:51;;;;;;;13.77;8.27;;;24.40;70.20;;;;;;1960790;28;20104;-61
2023/06/17 10:40:50;;;;;;;15.02;7.82;;;24.40;70.30;;;;;;1956357;28;20037;-60
2023/06/17 10:41:50;;;;;;;25.13;8.02;;;24.30;70.20;;;;;;1963526;28;20419;-61
2023/06/17 10:43:00;;;;;;;24.23;9.30;;;24.30;70.40;;;;;;1963110;28;20042;-61
2023/06/17 10:43:57;;;;;;;28.73;9.90;;;24.30;70.50;;;;;;1962708;28;20148;-61
2023/06/17 10:44:55;;;;;;;28.83;11.70;;;24.30;70.50;;;;;;1956587;28;20022;-61
2023/06/17 10:45:54;;;;;;;41.00;15.38;;;24.30;70.60;;;;;;1959267;28;20069;-61
2023/06/17 10:46:52;;;;;;;36.45;15.68;;;24.30;70.70;;;;;;1961339;28;20041;-61
2023/06/17 10:47:49;;;;;;;44.15;16.05;;;24.30;70.90;;;;;;1960123;28;20057;-61
2023/06/17 10:48:47;;;;;;;40.13;15.27;;;24.20;70.90;;;;;;1962870;28;20082;-61
2023/06/17 10:49:45;;;;;;;40.47;14.45;;;24.30;71.00;;;;;;1966357;28;20318;-61
2023/06/17 10:50:43;;;;;;;40.42;15.60;;;24.20;70.90;;;;;;1968903;28;20634;-61
2023/06/17 10:51:47;;;;;;;34.80;15.13;;;24.20;71.00;;;;;;1963578;28;20041;-61
2023/06/17 10:52:45;;;;;;;36.45;16.55;;;24.20;71.00;;;;;;1963995;28;20034;-61
2023/06/17 10:53:47;;;;;;;40.30;15.10;;;24.20;71.20;;;;;;1962295;28;20057;-61
2023/06/17 10:54:53;;;;;;;36.45;16.15;;;24.20;71.70;;;;;;1962404;28;20069;-61
2023/06/17 10:55:50;;;;;;;35.10;14.77;;;24.20;71.20;;;;;;1964033;28;20724;-61
2023/06/17 10:56:51;;;;;;;27.13;13.98;;;24.20;71.20;;;;;;1962737;28;20120;-61
2023/06/17 10:57:50;;;;;;;32.07;14.50;;;24.20;71.30;;;;;;1964552;28;20365;-61
2023/06/17 10:58:47;;;;;;;34.08;13.70;;;24.10;71.40;;;;;;1960767;28;20758;-61
2023/06/17 10:59:45;;;;;;;35.70;14.07;;;24.20;71.40;;;;;;1961100;28;20094;-61
2023/06/17 11:00:43;;;;;;;27.38;13.63;;;24.10;71.40;;;;;;1962433;28;20022;-61
2023/06/17 11:01:41;;;;;;;30.25;14.20;;;24.10;71.30;;;;;;1960240;28;20033;-61
2023/06/17 11:02:39;;;;;;;33.88;14.30;;;24.20;71.20;;;;;;1963855;28;20512;-61
2023/06/17 11:03:37;;;;;;;32.45;13.18;;;24.20;71.20;;;;;;1964608;28;20030;-61
2023/06/17 11:04:35;;;;;;;31.63;13.73;;;24.20;71.20;;;;;;1968243;28;20047;-61
2023/06/17 11:05:36;;;;;;;33.03;12.52;;;24.20;71.50;;;;;;1961449;28;20050;-61
2023/06/17 11:06:33;;;;;;;34.03;13.80;;;24.20;71.50;;;;;;1962851;28;20072;-61
2023/06/17 11:07:31;;;;;;;29.08;11.95;;;24.10;71.40;;;;;;1963145;28;20034;-62
2023/06/17 11:08:29;;;;;;;26.10;12.15;;;24.20;71.40;;;;;;1962854;28;20037;-61
2023/06/17 11:09:27;;;;;;;33.15;12.68;;;24.20;71.20;;;;;;1961048;28;20026;-61
2023/06/17 11:10:25;;;;;;;26.10;12.27;;;24.20;71.30;;;;;;1963483;28;20577;-61
2023/06/17 11:11:22;;;;;;;30.20;12.90;;;24.20;71.30;;;;;;1963846;28;20445;-61
2023/06/17 11:12:20;;;;;;;28.05;11.98;;;24.10;71.20;;;;;;1962006;28;20064;-61
2023/06/17 11:13:21;;;;;;;30.65;12.88;;;24.10;71.20;;;;;;1963155;28;20064;-61
2023/06/17 11:14:19;;;;;;;31.98;12.20;;;24.20;71.30;;;;;;1958738;28;20084;-61
2023/06/17 11:15:16;;;;;;;29.88;12.05;;;24.20;71.30;;;;;;1963327;28;20100;-61
2023/06/17 11:16:14;;;;;;;24.33;11.15;;;24.20;71.40;;;;;;1959610;28;20098;-61
2023/06/17 11:17:11;;;;;;;20.80;10.32;;;24.10;71.30;;;;;;1962376;28;20546;-61
2023/06/17 11:18:09;;;;;;;29.95;11.93;;;24.20;71.40;;;;;;1960919;28;20054;-60
2023/06/17 11:19:07;;;;;;;35.35;12.63;;;24.10;71.30;;;;;;1959596;28;20025;-61
2023/06/17 11:20:06;;;;;;;23.83;10.75;;;24.20;71.40;;;;;;1963265;28;20017;-61
2023/06/17 11:21:04;;;;;;;31.65;10.45;;;24.20;71.60;;;;;;1962077;28;20030;-61
2023/06/17 11:22:04;;;;;;;25.25;11.07;;;24.20;71.30;;;;;;1963034;28;20027;-61
2023/06/17 11:23:03;;;;;;;24.92;10.75;;;24.20;71.30;;;;;;1960252;28;20028;-61
2023/06/17 11:24:00;;;;;;;27.73;11.40;;;24.10;71.30;;;;;;1963171;28;20060;-61
2023/06/17 11:24:58;;;;;;;24.30;10.10;;;24.10;71.50;;;;;;1964643;28;20042;-61
2023/06/17 11:25:55;;;;;;;28.90;11.10;;;24.20;71.30;;;;;;1962237;28;20026;-61
2023/06/17 11:26:54;;;;;;;22.98;10.35;;;24.20;71.30;;;;;;1960764;28;20032;-61
2023/06/17 11:27:52;;;;;;;20.02;9.80;;;24.20;71.30;;;;;;1962255;28;20030;-61
2023/06/17 11:28:50;;;;;;;23.27;9.60;;;24.20;71.30;;;;;;1963680;28;20042;-61
2023/06/17 11:29:47;;;;;;;20.70;9.70;;;24.20;71.30;;;;;;1963302;28;20045;-61
2023/06/17 11:30:45;;;;;;;19.27;10.35;;;24.20;71.30;;;;;;1957150;28;20352;-61
2023/06/17 11:31:43;;;;;;;25.73;10.50;;;24.10;71.20;;;;;;1963658;28;20033;-61
2023/06/17 11:32:43;;;;;;;22.90;10.68;;;24.20;71.30;;;;;;1960569;28;20117;-61
2023/06/17 11:33:41;;;;;;;23.48;10.52;;;24.10;71.30;;;;;;1962287;28;20050;-61
2023/06/17 11:34:40;;;;;;;19.95;9.48;;;24.10;71.40;;;;;;1963015;28;20025;-61
2023/06/17 11:35:38;;;;;;;27.38;10.25;;;24.20;71.40;;;;;;1962882;28;20129;-61
2023/06/17 11:36:35;;;;;;;23.30;10.45;;;24.20;71.40;;;;;;1964551;28;20034;-60
2023/06/17 11:37:33;;;;;;;24.25;9.75;;;24.20;71.50;;;;;;1959559;28;20030;-61
2023/06/17 11:38:30;;;;;;;21.65;9.63;;;24.20;71.40;;;;;;1963145;28;20030;-61
2023/06/17 11:39:29;;;;;;;19.42;9.40;;;24.20;71.40;;;;;;1956627;28;20699;-61
2023/06/17 11:40:27;;;;;;;19.30;9.77;;;24.20;71.50;;;;;;1963800;28;20162;-61
2023/06/17 11:41:25;;;;;;;16.50;8.55;;;24.30;71.50;;;;;;1963285;28;20041;-61
2023/06/17 11:42:22;;;;;;;23.00;10.02;;;24.20;71.40;;;;;;1962767;28;20046;-61
2023/06/17 11:43:25;;;;;;;16.10;8.75;;;24.20;71.40;;;;;;1960233;28;20030;-61
2023/06/17 11:44:22;;;;;;;18.20;8.95;;;24.20;71.40;;;;;;1960649;28;20512;-61
2023/06/17 11:45:20;;;;;;;16.05;8.45;;;24.20;71.40;;;;;;1953064;28;20030;-61
2023/06/17 11:46:24;;;;;;;20.30;8.35;;;24.20;71.50;;;;;;1948098;28;20477;-61
2023/06/17 11:47:35;;;;;;;23.42;9.27;;;24.20;71.50;;;;;;1962599;28;20022;-61
2023/06/17 11:48:35;;;;;;;24.05;9.00;;;24.20;71.50;;;;;;1963488;28;20079;-61
2023/06/17 11:49:33;;;;;;;16.63;8.27;;;24.20;71.40;;;;;;1963860;28;20218;-61
2023/06/17 11:50:30;;;;;;;17.50;8.43;;;24.20;71.40;;;;;;1962291;28;20171;-61
2023/06/17 11:51:28;;;;;;;20.60;8.25;;;24.20;71.50;;;;;;1963308;28;20014;-61
2023/06/17 11:52:25;;;;;;;20.98;9.30;;;24.20;71.50;;;;;;1960191;28;20033;-61
2023/06/17 11:53:38;;;;;;;16.42;8.48;;;24.20;72.20;;;;;;1961987;28;20022;-61
2023/06/17 11:54:45;;;;;;;15.07;7.72;;;24.20;71.60;;;;;;1964804;28;20548;-61
2023/06/17 11:55:43;;;;;;;15.50;8.35;;;24.20;71.60;;;;;;1962575;28;20036;-62
2023/06/17 11:56:40;;;;;;;22.70;8.70;;;24.20;71.60;;;;;;1961470;28;20050;-62
2023/06/17 11:57:38;;;;;;;13.90;8.27;;;24.20;71.60;;;;;;1970232;28;20036;-62
2023/06/17 11:58:39;;;;;;;16.55;8.25;;;24.20;71.70;;;;;;1962276;28;20097;-62
2023/06/17 11:59:37;;;;;;;;;;;24.20;71.70;;;;;;1960596;28;20101;-61
2023/06/17 12:00:37;;;;;;;15.05;8.45;;;24.20;71.70;;;;;;1962661;28;19909;-61
2023/06/17 12:01:34;;;;;;;14.95;8.65;;;24.20;71.60;;;;;;1964048;28;20033;-61
2023/06/17 12:02:34;;;;;;;20.30;7.82;;;24.20;71.60;;;;;;1962102;28;20038;-61
2023/06/17 12:03:32;;;;;;;17.65;8.15;;;24.20;71.70;;;;;;1964851;28;20049;-61
2023/06/17 12:04:30;;;;;;;17.23;7.60;;;24.20;71.70;;;;;;1960991;28;20117;-62
2023/06/17 12:05:28;;;;;;;18.27;8.05;;;24.20;71.70;;;;;;1965101;28;20029;-62
2023/06/17 12:06:27;;;;;;;18.60;8.35;;;24.20;71.70;;;;;;1964347;28;20412;-61
2023/06/17 12:07:26;;;;;;;14.63;7.53;;;24.20;71.70;;;;;;1963234;28;20080;-61
2023/06/17 12:08:36;;;;;;;17.63;8.48;;;24.20;71.70;;;;;;1965093;28;20029;-61
2023/06/17 12:09:50;;;;;;;18.02;8.45;;;24.20;71.70;;;;;;1963637;28;20037;-62
2023/06/17 12:10:48;;;;;;;17.25;8.70;;;24.20;71.70;;;;;;1958516;28;20283;-62
2023/06/17 12:11:45;;;;;;;17.85;7.90;;;24.20;71.70;;;;;;1964120;28;20092;-61
2023/06/17 12:12:44;;;;;;;11.68;7.03;;;24.30;71.80;;;;;;1962100;28;20018;-62
2023/06/17 12:13:42;;;;;;;16.63;7.88;;;24.30;71.80;;;;;;1961262;28;20014;-61
2023/06/17 12:14:41;;;;;;;15.32;7.10;;;24.20;71.80;;;;;;1965247;28;20026;-62
2023/06/17 12:15:38;;;;;;;16.88;8.25;;;24.20;71.80;;;;;;1962396;28;20028;-61
2023/06/17 12:16:37;;;;;;;19.45;7.82;;;24.30;71.80;;;;;;1963894;28;20037;-62
2023/06/17 12:17:41;;;;;;;14.85;7.38;;;24.30;71.80;;;;;;1957150;28;20038;-61
2023/06/17 12:18:47;;;;;;;13.48;7.38;;;24.30;71.90;;;;;;1962846;28;20053;-61
2023/06/17 12:19:47;;;;;;;12.93;7.60;;;24.30;71.80;;;;;;1964837;28;20022;-61
2023/06/17 12:20:51;;;;;;;13.65;7.40;;;24.30;71.80;;;;;;1962853;28;20636;-61
2023/06/17 12:21:48;;;;;;;14.25;7.05;;;24.30;71.90;;;;;;1962460;28;20117;-61
2023/06/17 12:22:48;;;;;;;18.35;8.52;;;24.30;72.00;;;;;;1966810;28;20453;-61
2023/06/17 12:23:46;;;;;;;12.50;7.22;;;24.30;72.00;;;;;;1963694;28;20029;-62
2023/06/17 12:24:43;;;;;;;17.70;7.68;;;24.30;72.20;;;;;;1965586;28;20057;-61
2023/06/17 12:25:41;;;;;;;13.05;6.95;;;24.30;72.10;;;;;;1964800;28;20030;-62
2023/06/17 12:26:39;;;;;;;20.83;8.10;;;24.30;72.10;;;;;;1963148;28;20477;-61
2023/06/17 12:27:37;;;;;;;13.10;6.90;;;24.30;72.30;;;;;;1963752;28;20531;-61
2023/06/17 12:28:35;;;;;;;14.35;6.72;;;24.30;72.20;;;;;;1964930;28;20482;-61
2023/06/17 12:29:32;;;;;;;15.20;7.30;;;24.30;72.10;;;;;;1964148;28;20034;-61
2023/06/17 12:30:33;;;;;;;10.68;6.97;;;24.30;72.20;;;;;;1967116;28;20116;-61
2023/06/17 12:31:31;;;;;;;15.00;7.72;;;24.30;72.20;;;;;;1964287;28;20092;-61
2023/06/17 12:32:28;;;;;;;20.50;7.55;;;24.30;72.20;;;;;;1965598;28;20193;-61
2023/06/17 12:33:26;;;;;;;17.70;7.88;;;24.40;72.20;;;;;;1964800;28;20029;-61
2023/06/17 12:34:23;;;;;;;16.67;7.60;;;24.30;72.20;;;;;;1965609;28;20128;-61
2023/06/17 12:35:22;;;;;;;16.50;7.20;;;24.30;72.30;;;;;;1965819;28;20041;-62
2023/06/17 12:36:20;;;;;;;16.20;7.20;;;24.30;72.30;;;;;;1964534;28;20041;-63
2023/06/17 12:37:20;;;;;;;13.55;7.07;;;24.40;72.30;;;;;;1964921;28;20097;-62